createdAt,value
2022-11-29T00:02:41.842Z,100333.41
2022-11-29T00:07:44.624Z,100327.56
2022-11-29T00:12:48.404Z,100331.94
2022-11-29T00:17:52.369Z,100332.25
2022-11-29T00:22:54.974Z,100323.28
2022-11-29T00:27:57.694Z,100331.59
2022-11-29T00:33:03.060Z,100328.41
2022-11-29T00:38:06.126Z,100328.50
2022-11-29T00:43:09.933Z,100319.66
2022-11-29T00:54:29.062Z,100327.19
2022-11-29T00:59:31.658Z,100313.78
2022-11-29T01:04:34.245Z,100320.63
2022-11-29T01:09:38.202Z,100327.50
2022-11-29T01:14:40.874Z,100330.00
2022-11-29T01:19:49.334Z,100336.66
2022-11-29T01:24:54.627Z,100329.88
2022-11-29T01:30:00.185Z,100339.25
2022-11-29T01:35:03.109Z,100342.72
2022-11-29T01:40:08.723Z,100333.91
2022-11-29T01:45:23.712Z,100334.75
2022-11-29T01:50:26.311Z,100336.97
2022-11-29T01:55:30.435Z,100334.81
2022-11-29T02:00:33.490Z,100332.09
2022-11-29T02:05:36.686Z,100337.28
2022-11-29T02:10:57.878Z,100339.00
2022-11-29T02:16:04.884Z,100336.94
2022-11-29T02:21:32.473Z,100337.28
2022-11-29T02:27:10.347Z,100338.38
2022-11-29T02:32:52.651Z,100345.66
2022-11-29T02:38:13.672Z,100335.31
2022-11-29T02:43:33.226Z,100344.84
2022-11-29T02:48:53.868Z,100341.97
2022-11-29T02:54:04.419Z,100345.84
2022-11-29T02:59:16.825Z,100345.03
2022-11-29T03:04:32.169Z,100357.22
2022-11-29T03:09:40.532Z,100353.31
2022-11-29T03:14:51.429Z,100354.19
2022-11-29T03:20:11.798Z,100347.78
2022-11-29T03:25:22.993Z,100360.28
2022-11-29T03:30:25.661Z,100358.34
2022-11-29T03:35:37.598Z,100370.25
2022-11-29T03:40:45.947Z,100373.31
2022-11-29T03:45:54.795Z,100371.44
2022-11-29T03:51:04.482Z,100365.91
2022-11-29T03:56:26.937Z,100371.00
2022-11-29T04:02:01.577Z,100359.44
2022-11-29T04:07:21.942Z,100367.03
2022-11-29T04:12:54.466Z,100370.59
2022-11-29T04:18:24.734Z,100371.94
2022-11-29T04:24:04.892Z,100380.84
2022-11-29T04:29:17.346Z,100386.13
2022-11-29T04:34:39.246Z,100386.31
2022-11-29T04:40:10.365Z,100385.38
2022-11-29T04:45:45.376Z,100392.91
2022-11-29T04:50:55.010Z,100395.69
2022-11-29T04:56:05.197Z,100403.72
2022-11-29T05:01:18.814Z,100402.22
2022-11-29T05:06:28.629Z,100399.59
2022-11-29T05:11:44.420Z,100400.72
2022-11-29T05:16:53.940Z,100398.09
2022-11-29T05:22:05.974Z,100410.75
2022-11-29T05:27:23.821Z,100411.81
2022-11-29T05:32:34.644Z,100418.03
2022-11-29T05:37:45.195Z,100422.56
2022-11-29T05:43:13.226Z,100422.03
2022-11-29T05:48:25.741Z,100430.97
2022-11-29T05:53:35.759Z,100439.78
2022-11-29T05:58:47.370Z,100435.28
2022-11-29T06:03:59.847Z,100442.81
2022-11-29T06:09:10.964Z,100446.97
2022-11-29T06:14:27.084Z,100454.59
2022-11-29T06:19:57.499Z,100454.53
2022-11-29T06:25:18.483Z,100460.19
2022-11-29T06:30:25.005Z,100462.88
2022-11-29T06:35:43.909Z,100465.16
2022-11-29T06:40:47.057Z,100472.59
2022-11-29T06:45:53.038Z,100478.59
2022-11-29T06:51:04.445Z,100481.78
2022-11-29T06:56:19.382Z,100485.16
2022-11-29T07:01:30.070Z,100492.38
2022-11-29T07:06:35.796Z,100497.56
2022-11-29T07:11:39.351Z,100510.22
2022-11-29T07:16:57.139Z,100515.22
2022-11-29T07:22:09.797Z,100511.50
2022-11-29T07:27:20.392Z,100508.25
2022-11-29T07:32:29.851Z,100516.59
2022-11-29T07:37:40.978Z,100521.09
2022-11-29T07:42:56.519Z,100526.56
2022-11-29T07:47:59.899Z,100533.34
2022-11-29T07:53:04.589Z,100528.88
2022-11-29T07:58:07.177Z,100526.94
2022-11-29T08:03:10.279Z,100534.63
2022-11-29T08:08:15.018Z,100534.41
2022-11-29T08:13:20.018Z,100534.63
2022-11-29T08:18:22.559Z,100532.50
2022-11-29T08:23:26.464Z,100533.69
2022-11-29T08:28:29.168Z,100544.75
2022-11-29T08:33:32.203Z,100541.59
2022-11-29T08:38:36.115Z,100553.06
2022-11-29T08:43:38.722Z,100552.34
2022-11-29T08:48:41.364Z,100552.72
2022-11-29T08:53:51.633Z,100549.09
2022-11-29T08:58:54.332Z,100560.06
2022-11-29T09:04:07.609Z,100565.03
2022-11-29T09:09:14.208Z,100569.41
2022-11-29T09:14:17.884Z,100576.34
2022-11-29T09:19:20.405Z,100579.22
2022-11-29T09:24:24.311Z,100588.38
2022-11-29T09:29:26.910Z,100593.06
2022-11-29T09:34:29.485Z,100592.78
2022-11-29T09:39:33.399Z,100596.88
2022-11-29T09:44:48.455Z,100603.75
2022-11-29T09:50:03.654Z,100591.16
2022-11-29T09:55:33.154Z,100597.13
2022-11-29T10:00:43.985Z,100600.53
2022-11-29T10:05:50.212Z,100597.69
2022-11-29T10:10:57.238Z,100594.28
2022-11-29T10:16:06.318Z,100601.47
2022-11-29T10:21:15.227Z,100602.28
2022-11-29T10:26:20.718Z,100594.00
2022-11-29T10:31:27.041Z,100607.84
2022-11-29T10:36:36.400Z,100602.44
2022-11-29T10:41:40.297Z,100598.94
2022-11-29T10:46:43.017Z,100608.19
2022-11-29T10:51:46.739Z,100600.34
2022-11-29T10:56:50.876Z,100598.44
2022-11-29T11:01:53.856Z,100596.16
2022-11-29T11:07:00.927Z,100593.16
2022-11-29T11:12:08.473Z,100608.41
2022-11-29T11:17:26.138Z,100604.00
2022-11-29T11:22:31.238Z,100600.47
2022-11-29T11:27:39.799Z,100609.03
2022-11-29T11:33:06.733Z,100617.59
2022-11-29T11:38:17.905Z,100625.31
2022-11-29T11:43:23.901Z,100618.31
2022-11-29T11:48:26.878Z,100621.88
2022-11-29T11:53:34.225Z,100629.13
2022-11-29T11:58:40.756Z,100629.94
2022-11-29T12:03:55.752Z,100634.41
2022-11-29T12:09:04.135Z,100629.41
2022-11-29T12:14:11.290Z,100635.19
2022-11-29T12:19:20.476Z,100643.38
2022-11-29T12:24:30.199Z,100641.03
2022-11-29T12:29:35.984Z,100645.06
2022-11-29T12:34:53.236Z,100651.22
2022-11-29T12:39:58.538Z,100643.97
2022-11-29T12:45:21.278Z,100644.75
2022-11-29T12:50:34.321Z,100651.34
2022-11-29T12:55:46.019Z,100657.66
2022-11-29T13:00:58.809Z,100656.00
2022-11-29T13:06:16.327Z,100663.13
2022-11-29T13:11:24.690Z,100663.63
2022-11-29T13:16:41.431Z,100671.84
2022-11-29T13:21:51.939Z,100667.22
2022-11-29T13:26:56.415Z,100668.84
2022-11-29T13:32:00.917Z,100676.94
2022-11-29T13:37:14.011Z,100681.94
2022-11-29T13:42:23.441Z,100686.38
2022-11-29T13:47:27.642Z,100692.66
2022-11-29T13:52:39.633Z,100686.88
2022-11-29T13:58:15.050Z,100686.72
2022-11-29T14:03:40.811Z,100685.94
2022-11-29T14:09:19.986Z,100699.44
2022-11-29T14:14:28.804Z,100701.16
2022-11-29T14:19:34.386Z,100698.19
2022-11-29T14:24:41.500Z,100700.88
2022-11-29T14:29:54.061Z,100704.41
2022-11-29T14:35:04.953Z,100712.53
2022-11-29T14:40:21.790Z,100704.09
2022-11-29T14:45:30.432Z,100710.66
2022-11-29T14:50:36.945Z,100716.78
2022-11-29T14:55:39.782Z,100711.38
2022-11-29T15:01:10.661Z,100717.22
2022-11-29T15:06:23.204Z,100720.72
2022-11-29T15:11:35.586Z,100727.25
2022-11-29T15:16:53.762Z,100730.84
2022-11-29T15:22:07.327Z,100728.91
2022-11-29T15:27:14.105Z,100747.13
2022-11-29T15:32:24.157Z,100743.59
2022-11-29T15:37:45.273Z,100751.75
2022-11-29T15:42:53.296Z,100760.44
2022-11-29T15:47:57.095Z,100762.72
2022-11-29T15:53:07.180Z,100763.97
2022-11-29T15:58:13.851Z,100777.53
2022-11-29T16:03:22.452Z,100778.38
2022-11-29T16:08:30.475Z,100780.91
2022-11-29T16:13:37.644Z,100789.00
2022-11-29T16:18:42.796Z,100796.34
2022-11-29T16:23:46.820Z,100802.50
2022-11-29T16:28:51.748Z,100801.63
2022-11-29T16:33:54.336Z,100814.41
2022-11-29T16:39:07.919Z,100813.47
2022-11-29T16:44:46.994Z,100816.75
2022-11-29T16:50:10.816Z,100818.53
2022-11-29T16:55:16.599Z,100816.63
2022-11-29T17:00:31.244Z,100822.03
2022-11-29T17:05:33.635Z,100827.56
2022-11-29T17:10:37.760Z,100818.34
2022-11-29T17:15:40.342Z,100820.75
2022-11-29T17:20:42.896Z,100823.91
2022-11-29T17:25:46.876Z,100817.97
2022-11-29T17:30:49.518Z,100828.94
2022-11-29T17:35:52.117Z,100821.88
2022-11-29T17:40:56.028Z,100826.47
2022-11-29T17:46:07.712Z,100834.94
2022-11-29T17:51:36.018Z,100839.09
2022-11-29T17:56:37.083Z,100846.31
2022-11-29T18:01:39.775Z,100849.53
2022-11-29T18:06:45.881Z,100847.91
2022-11-29T18:11:50.433Z,100857.69
2022-11-29T18:16:53.425Z,100844.63
2022-11-29T18:21:56.036Z,100846.81
2022-11-29T18:26:59.910Z,100847.03
2022-11-29T18:32:02.472Z,100849.66
2022-11-29T18:37:05.045Z,100853.44
2022-11-29T18:42:08.956Z,100855.06
2022-11-29T18:47:11.703Z,100862.09
2022-11-29T18:52:14.358Z,100866.41
2022-11-29T18:57:18.277Z,100869.19
2022-11-29T19:02:20.891Z,100874.63
2022-11-29T19:07:23.541Z,100873.50
2022-11-29T19:12:27.547Z,100875.03
2022-11-29T19:17:30.123Z,100876.47
2022-11-29T19:22:32.706Z,100875.53
2022-11-29T19:27:36.638Z,100877.56
2022-11-29T19:32:39.208Z,100882.66
2022-11-29T19:37:41.976Z,100878.66
2022-11-29T19:42:48.418Z,100884.63
2022-11-29T19:47:51.048Z,100880.56
2022-11-29T19:52:53.581Z,100885.03
2022-11-29T19:57:57.650Z,100894.25
2022-11-29T20:03:00.307Z,100885.44
2022-11-29T20:08:02.969Z,100894.97
2022-11-29T20:13:07.738Z,100905.06
2022-11-29T20:18:10.479Z,100902.22
2022-11-29T20:23:13.023Z,100907.50
2022-11-29T20:28:16.950Z,100908.19
2022-11-29T20:33:23.511Z,100914.63
2022-11-29T20:38:35.023Z,100918.59
2022-11-29T20:43:45.021Z,100917.91
2022-11-29T20:48:47.938Z,100918.69
2022-11-29T20:53:50.521Z,100920.28
2022-11-29T20:58:54.446Z,100915.97
2022-11-29T21:03:57.069Z,100926.06
2022-11-29T21:08:59.619Z,100931.56
2022-11-29T21:14:05.833Z,100932.69
2022-11-29T21:19:17.343Z,100930.00
2022-11-29T21:24:32.979Z,100938.22
2022-11-29T21:29:37.919Z,100941.63
2022-11-29T21:34:44.378Z,100944.41
2022-11-29T21:39:53.279Z,100948.91
2022-11-29T21:45:01.865Z,100944.44
2022-11-29T21:50:08.997Z,100945.72
2022-11-29T21:55:13.073Z,100954.28
2022-11-29T22:00:18.209Z,100946.69
2022-11-29T22:05:20.922Z,100948.25
2022-11-29T22:10:24.521Z,100950.56
2022-11-29T22:15:29.539Z,100941.78
2022-11-29T22:20:32.137Z,100949.63
2022-11-29T22:25:34.735Z,100953.97
2022-11-29T22:30:38.685Z,100954.88
2022-11-29T22:35:43.932Z,100951.00
2022-11-29T22:40:46.477Z,100955.84
2022-11-29T22:45:50.347Z,100954.59
2022-11-29T22:50:52.925Z,100962.22
2022-11-29T22:55:58.440Z,100954.06
2022-11-29T23:01:07.267Z,100952.47
2022-11-29T23:06:11.371Z,100952.31
2022-11-29T23:11:15.880Z,100956.63
2022-11-29T23:16:20.709Z,100959.06
2022-11-29T23:21:25.568Z,100959.75
2022-11-29T23:26:29.721Z,100954.34
2022-11-29T23:31:34.299Z,100949.06
2022-11-29T23:36:36.991Z,100954.84
2022-11-29T23:41:39.571Z,100947.06
2022-11-29T23:46:43.547Z,100953.50
2022-11-29T23:51:46.127Z,100951.53
2022-11-29T23:56:48.635Z,100949.78
